METAR luchtvaart weer gegevens      EFOU Oulu Airport
Temperatuur
-3°C Temperatuur
-3°C Dauwpunt
100% Vochtigheid



Wind
5 MPH
8 KM/U
2 M/S
4 KTS



140°
ZO
Huidig weer

Lichte Sneeuw Lichte Sneeuw
Luchtdruk 1035.92 (hPa) - 30.59 (inHg)
Zicht 4.3 (mijl) - 7 (km)
Vliegveld
Vliegveld code EFOU

Locatie : Oulu Airport
Afstand: 83 (mi)

Metar:
EFOU 301420Z AUTO 14004KT 7000 -SN FEW007 OVC047 M03/M03 Q1036

Tijd: 30-11-2022 16:20 EET